TimeEST,TemperatureF,Dew PointF,Humidity,Sea Level PressureIn,VisibilityMPH,Wind Direction,Wind SpeedMPH,Gust SpeedMPH,PrecipitationIn,Events,Conditions,WindDirDegrees,DateUTC
12:56 AM,36.0,33.1,89,30.30,10.0,NNE,3.5,-,N/A,,Clear,20,2012-11-16 05:56:00
1:56 AM,34.0,33.1,96,30.30,7.0,Calm,Calm,-,N/A,,Clear,0,2012-11-16 06:56:00
2:56 AM,34.0,32.0,92,30.30,7.0,NNW,3.5,-,N/A,,Clear,340,2012-11-16 07:56:00
3:56 AM,34.0,32.0,92,30.29,9.0,NNW,3.5,-,N/A,,Clear,340,2012-11-16 08:56:00
4:56 AM,30.9,30.0,96,30.29,5.0,North,3.5,-,N/A,,Clear,360,2012-11-16 09:56:00
5:56 AM,32.0,30.0,92,30.30,8.0,North,3.5,-,N/A,,Clear,360,2012-11-16 10:56:00
6:56 AM,30.9,28.9,92,30.31,7.0,North,4.6,-,N/A,,Clear,360,2012-11-16 11:56:00
7:56 AM,36.0,32.0,86,30.33,9.0,North,3.5,-,N/A,,Clear,10,2012-11-16 12:56:00
8:56 AM,41.0,34.0,76,30.35,10.0,NNE,5.8,-,N/A,,Clear,30,2012-11-16 13:56:00
9:56 AM,44.1,36.0,73,30.35,10.0,Variable,3.5,-,N/A,,Clear,0,2012-11-16 14:56:00
10:56 AM,46.0,39.0,76,30.35,10.0,SE,5.8,-,N/A,,Clear,130,2012-11-16 15:56:00
11:56 AM,52.0,37.9,59,30.33,10.0,East,3.5,-,N/A,,Clear,90,2012-11-16 16:56:00
12:56 PM,55.0,36.0,49,30.31,10.0,Variable,5.8,-,N/A,,Clear,0,2012-11-16 17:56:00
1:56 PM,57.9,34.0,41,30.29,10.0,Calm,Calm,-,N/A,,Clear,0,2012-11-16 18:56:00
2:56 PM,59.0,33.1,38,30.27,10.0,Variable,5.8,-,N/A,,Clear,0,2012-11-16 19:56:00
3:56 PM,59.0,32.0,36,30.27,10.0,NE,3.5,-,N/A,,Clear,40,2012-11-16 20:56:00
4:56 PM,55.0,35.1,47,30.28,10.0,NE,3.5,-,N/A,,Clear,50,2012-11-16 21:56:00
5:56 PM,46.9,37.0,68,30.30,10.0,Calm,Calm,-,N/A,,Clear,0,2012-11-16 22:56:00
6:56 PM,43.0,36.0,76,30.32,10.0,Calm,Calm,-,N/A,,Clear,0,2012-11-16 23:56:00
7:56 PM,42.1,35.1,76,30.33,10.0,Calm,Calm,-,N/A,,Clear,0,2012-11-17 00:56:00
8:56 PM,39.0,35.1,86,30.34,10.0,Calm,Calm,-,N/A,,Clear,0,2012-11-17 01:56:00
9:56 PM,37.0,35.1,93,30.36,10.0,Calm,Calm,-,N/A,,Clear,0,2012-11-17 02:56:00
10:56 PM,36.0,34.0,93,30.37,10.0,NNE,4.6,-,N/A,,Clear,20,2012-11-17 03:56:00
11:56 PM,36.0,33.1,89,30.37,10.0,North,4.6,-,N/A,,Clear,10,2012-11-17 04:56:00